Time;durP1;ratioP1;P1;durP2;ratioP2;P2;SDS_P1;SDS_P2;PMS_P1;PMS_P2;Temp;Humidity;BMP_temperature;BMP_pressure;BME280_temperature;BME280_humidity;BME280_pressure;Samples;Min_cycle;Max_cycle;Signal;HPM_P1;HPM_P2
2023/08/25 07:23:42;;;;;;;11.52;10.50;;;;;;;-145.79;100.00;76313.34;5367224;27;20343;-69
2023/08/25 07:26:13;;;;;;;10.60;9.60;;;;;;;-145.79;100.00;76362.09;5369159;27;20034;-69
2023/08/25 07:28:46;;;;;;;12.88;11.48;;;;;;;-145.79;100.00;76387.53;5366134;27;20031;-68
2023/08/25 07:31:17;;;;;;;12.25;9.60;;;;;;;-145.79;100.00;76359.97;5370814;27;20031;-68
2023/08/25 07:33:49;;;;;;;9.25;8.35;;;;;;;-145.79;100.00;76359.97;5373622;27;20030;-67
2023/08/25 07:36:20;;;;;;;11.18;9.20;;;;;;;-145.79;100.00;76334.56;5372578;27;20053;-67
2023/08/25 07:38:52;;;;;;;10.07;9.13;;;;;;;-145.79;100.00;76323.97;5372960;27;20088;-68
2023/08/25 07:41:23;;;;;;;8.77;7.97;;;;;;;-145.79;100.00;76317.59;5374795;27;20079;-68
2023/08/25 07:43:56;;;;;;;9.32;8.45;;;;;;;-145.79;100.00;76309.13;5376242;27;20025;-68
2023/08/25 07:46:27;;;;;;;8.70;7.80;;;;;;;-145.79;100.00;76302.75;5372681;27;20027;-68
2023/08/25 07:48:58;;;;;;;8.52;7.72;;;;;;;-145.79;100.00;76307.00;5371384;27;20037;-68
2023/08/25 07:51:30;;;;;;;9.13;8.25;;;;;;;-145.79;100.00;76300.66;5369894;27;20058;-69
2023/08/25 07:54:01;;;;;;;9.40;7.85;;;;;;;-145.79;100.00;76292.16;5372029;27;20034;-67
2023/08/25 07:56:33;;;;;;;9.13;7.22;;;;;;;-145.79;100.00;76294.28;5366688;27;20027;-68
2023/08/25 07:59:05;;;;;;;9.80;8.05;;;;;;;-145.79;100.00;76285.81;5360971;27;20027;-69
2023/08/25 08:01:36;;;;;;;8.35;7.47;;;;;;;-145.79;100.00;76275.22;5360182;27;20037;-69
2023/08/25 08:04:08;;;;;;;8.45;7.65;;;;;;;-145.79;100.00;76275.22;5351412;27;20468;-69
2023/08/25 08:06:39;;;;;;;9.13;7.28;;;;;;;-145.79;100.00;76277.34;5369935;27;20033;-69
2023/08/25 08:09:11;;;;;;;7.88;7.10;;;;;;;-145.79;100.00;76281.56;5365991;27;20023;-69
2023/08/25 08:11:42;;;;;;;10.25;7.60;;;;;;;-145.79;100.00;76283.69;5372450;27;20102;-69
2023/08/25 08:14:15;;;;;;;8.43;7.55;;;;;;;-145.79;100.00;76277.34;5373743;27;20023;-69
2023/08/25 08:16:46;;;;;;;7.45;6.75;;;;;;;-145.79;100.00;76277.34;5360972;27;20032;-70
2023/08/25 08:19:17;;;;;;;9.30;8.40;;;;;;;-145.79;100.00;76279.47;5375484;27;20029;-72
2023/08/25 08:21:49;;;;;;;8.20;7.50;;;;;;;-145.79;100.00;76254.03;5374701;27;20104;-70
2023/08/25 08:24:21;;;;;;;9.27;8.45;;;;;;;-145.79;100.00;76241.31;5371887;27;20444;-69
2023/08/25 08:26:52;;;;;;;7.95;7.15;;;;;;;-145.79;100.00;76245.56;5371309;27;20022;-70
2023/08/25 08:29:25;;;;;;;8.80;8.05;;;;;;;-145.79;100.00;76247.66;5354755;27;20054;-70
2023/08/25 08:31:56;;;;;;;9.27;8.38;;;;;;;-145.79;100.00;76260.38;5368135;27;20384;-70
2023/08/25 08:34:27;;;;;;;7.85;6.90;;;;;;;-145.79;100.00;76239.19;5359983;27;20019;-71
2023/08/25 08:36:59;;;;;;;9.27;8.40;;;;;;;-145.79;100.00;76249.78;5360353;27;20023;-71
2023/08/25 08:39:30;;;;;;;9.20;8.27;;;;;;;-145.79;100.00;76281.56;5357294;27;20099;-70
2023/08/25 08:42:02;;;;;;;9.45;8.75;;;;;;;-145.79;100.00;76287.94;5356094;27;20031;-71
2023/08/25 08:44:37;;;;;;;10.63;9.82;;;;;;;-145.79;100.00;76275.22;5357935;27;20111;-69
2023/08/25 08:47:09;;;;;;;10.68;9.77;;;;;;;-145.79;100.00;76275.22;5352572;27;20011;-69
2023/08/25 08:49:42;;;;;;;10.68;9.73;;;;;;;-145.79;100.00;76275.22;5360739;27;20019;-69
2023/08/25 08:52:14;;;;;;;10.55;9.55;;;;;;;-145.79;100.00;76270.97;5357249;27;20098;-68
2023/08/25 08:54:46;;;;;;;12.85;11.70;;;;;;;-145.79;100.00;76281.56;5354711;27;20022;-68
2023/08/25 08:57:18;;;;;;;12.43;11.32;;;;;;;-145.79;100.00;76279.47;5359510;27;20019;-69
2023/08/25 08:59:51;;;;;;;10.10;9.30;;;;;;;-145.79;100.00;76262.50;5347300;27;20371;-68
2023/08/25 09:02:23;;;;;;;8.73;7.93;;;;;;;-145.79;100.00;76254.03;5363971;27;20046;-68
2023/08/25 09:05:01;;;;;;;8.82;8.07;;;;;;;-145.79;99.83;76245.56;5352788;27;20067;-69
2023/08/25 09:07:33;;;;;;;10.32;9.60;;;;;;;-145.79;100.00;76237.06;5353032;27;20022;-67
2023/08/25 09:10:05;;;;;;;11.95;10.27;;;;;;;-145.79;100.00;76251.91;5357042;27;20363;-69
2023/08/25 09:12:36;;;;;;;10.85;9.75;;;;;;;-145.79;100.00;76273.09;5355624;27;20026;-69
2023/08/25 09:15:08;;;;;;;10.77;9.68;;;;;;;-145.79;100.00;76298.53;5353519;27;20046;-69
2023/08/25 09:17:39;;;;;;;9.55;8.63;;;;;;;-145.79;100.00;76264.63;5357658;27;20019;-69
2023/08/25 09:20:13;;;;;;;10.82;9.98;;;;;;;-145.79;100.00;76258.25;5356815;27;20098;-71
2023/08/25 09:22:55;;;;;;;10.93;9.93;;;;;;;-145.79;100.00;76228.59;5357426;27;20047;-70
2023/08/25 09:25:26;;;;;;;11.73;10.55;;;;;;;-145.79;100.00;76239.19;5361809;27;20076;-71
2023/08/25 09:28:00;;;;;;;12.73;11.55;;;;;;;-145.79;100.00;76266.75;5358033;27;20038;-71
2023/08/25 09:30:37;;;;;;;12.00;10.93;;;;;;;-145.79;100.00;76264.63;5357050;27;20084;-71
2023/08/25 09:33:13;;;;;;;10.35;9.38;;;;;;;-145.79;100.00;76258.25;5360318;27;20023;-71
2023/08/25 09:35:45;;;;;;;31.60;29.05;;;;;;;-145.79;100.00;76273.09;5356132;27;20035;-73
2023/08/25 09:38:23;;;;;;;34.13;31.15;;;;;;;-145.79;100.00;76247.66;5360011;27;20102;-73
2023/08/25 09:40:55;;;;;;;12.85;11.57;;;;;;;-145.79;100.00;76254.03;5354450;27;20023;-71
2023/08/25 09:43:33;;;;;;;12.02;11.02;;;;;;;-145.79;100.00;76245.56;5351853;27;20530;-71
2023/08/25 09:46:08;;;;;;;13.10;12.07;;;;;;;-145.79;100.00;76245.56;5359085;27;20433;-72
2023/08/25 09:48:39;;;;;;;;;;;;;;;-145.79;100.00;76234.97;5349750;27;20469;-73
2023/08/25 09:51:11;;;;;;;11.70;10.70;;;;;;;-145.79;100.00;76268.84;5354080;27;19916;-72
2023/08/25 09:53:45;;;;;;;12.45;11.35;;;;;;;-145.79;100.00;76254.03;5354759;27;20115;-73
2023/08/25 09:56:17;;;;;;;12.63;11.52;;;;;;;-145.79;100.00;76243.44;5347832;27;20110;-72
2023/08/25 09:58:49;;;;;;;13.45;10.85;;;;;;;-145.79;100.00;76237.06;5360556;27;20054;-72
2023/08/25 10:01:21;;;;;;;11.23;10.13;;;;;;;-145.79;100.00;76209.53;5354081;27;20054;-72
2023/08/25 10:03:53;;;;;;;12.82;11.52;;;;;;;-145.79;100.00;76211.66;5348240;27;20023;-72
2023/08/25 10:06:24;;;;;;;14.13;13.13;;;;;;;-145.79;100.00;76213.75;5341158;27;20088;-71
2023/08/25 10:08:56;;;;;;;13.57;12.48;;;;;;;-145.79;100.00;76203.16;5361061;27;20022;-72
2023/08/25 10:11:34;;;;;;;13.32;12.18;;;;;;;-145.79;100.00;76198.94;5351502;27;20023;-73
2023/08/25 10:14:10;;;;;;;13.25;12.18;;;;;;;-145.79;100.00;76181.97;5360127;27;20466;-71
2023/08/25 10:16:51;;;;;;;10.52;9.52;;;;;;;-145.79;100.00;76169.25;5357528;27;20030;-73
2023/08/25 10:19:27;;;;;;;12.07;11.18;;;;;;;-145.79;100.00;76181.97;5360230;27;20373;-72
2023/08/25 10:22:01;;;;;;;10.50;9.52;;;;;;;-145.79;100.00;76175.63;5355113;27;20574;-72
2023/08/25 10:24:34;;;;;;;15.98;14.52;;;;;;;-145.79;99.97;76158.66;5355124;27;20101;-72
2023/08/25 10:27:07;;;;;;;11.00;10.13;;;;;;;-145.79;100.00;76169.25;5354166;27;20810;-71
2023/08/25 10:29:39;;;;;;;12.35;11.15;;;;;;;-145.79;100.00;76175.63;5342447;27;20084;-71
2023/08/25 10:32:11;;;;;;;12.60;11.60;;;;;;;-145.79;100.00;76173.50;5361281;27;20107;-70
2023/08/25 10:34:44;;;;;;;12.57;11.48;;;;;;;-145.79;100.00;76186.22;5355881;27;20030;-71
2023/08/25 10:37:24;;;;;;;11.98;10.90;;;;;;;-145.79;100.00;76181.97;5358060;27;20520;-71
2023/08/25 10:40:06;;;;;;;10.05;9.15;;;;;;;-145.79;100.00;76173.50;5343825;27;20027;-71
2023/08/25 10:42:37;;;;;;;10.68;9.88;;;;;;;-145.79;100.00;76190.47;5356780;27;20045;-72
2023/08/25 10:45:12;;;;;;;12.38;11.38;;;;;;;-145.79;100.00;76203.16;5356055;27;20019;-71
2023/08/25 10:47:46;;;;;;;11.63;10.73;;;;;;;-145.79;100.00;76194.69;5359366;27;20132;-71
2023/08/25 10:50:22;;;;;;;12.55;11.43;;;;;;;-145.79;100.00;76194.69;5357176;27;20031;-72
2023/08/25 10:52:54;;;;;;;12.55;11.45;;;;;;;-145.79;100.00;76201.06;5354450;27;20027;-72
2023/08/25 10:55:28;;;;;;;10.07;9.38;;;;;;;-145.79;100.00;76177.75;5357885;27;20030;-72
2023/08/25 10:58:06;;;;;;;11.25;10.40;;;;;;;-145.79;100.00;76177.75;5352444;27;20027;-71
2023/08/25 11:00:43;;;;;;;13.55;12.55;;;;;;;-145.79;100.00;76181.97;5339569;27;20027;-72
2023/08/25 11:03:15;;;;;;;23.88;21.98;;;;;;;-145.79;100.00;76171.38;5353946;27;20035;-72
2023/08/25 11:05:46;;;;;;;17.58;16.17;;;;;;;-145.79;100.00;76175.63;5353486;27;20015;-72
2023/08/25 11:08:25;;;;;;;15.90;14.48;;;;;;;-145.79;100.00;76173.50;5345624;27;20032;-71
2023/08/25 11:11:12;;;;;;;13.48;12.27;;;;;;;-145.79;100.00;76156.56;5343164;27;20042;-71
2023/08/25 11:13:43;;;;;;;18.20;16.63;;;;;;;-145.79;100.00;76148.06;5350862;27;20390;-73
2023/08/25 11:16:15;;;;;;;16.38;15.07;;;;;;;-145.79;100.00;76150.19;5335251;27;20023;-71
2023/08/25 11:18:46;;;;;;;17.65;16.10;;;;;;;-145.79;100.00;76152.31;5349705;27;20108;-71
2023/08/25 11:21:22;;;;;;;16.25;14.82;;;;;;;-145.79;100.00;76154.44;5348321;27;20099;-71
2023/08/25 11:23:54;;;;;;;13.10;11.77;;;;;;;-145.79;100.00;76135.38;5346185;27;20448;-74
2023/08/25 11:26:25;;;;;;;16.05;14.65;;;;;;;-145.79;100.00;76135.38;5351402;27;20023;-73
2023/08/25 11:28:57;;;;;;;14.73;13.48;;;;;;;-145.79;99.83;76135.38;5354147;27;20627;-75
2023/08/25 11:31:28;;;;;;;16.95;13.95;;;;;;;-145.79;100.00;76139.59;5355473;27;20022;-75
2023/08/25 11:33:59;;;;;;;14.82;13.10;;;;;;;-145.79;99.23;76131.13;5353840;27;20042;-74
2023/08/25 11:36:31;;;;;;;17.98;16.40;;;;;;;-145.79;100.00;76143.84;5335981;27;20367;-73
2023/08/25 11:39:02;;;;;;;14.75;13.20;;;;;;;-145.79;99.64;76141.72;5343323;27;20019;-74
2023/08/25 11:41:33;;;;;;;18.38;16.88;;;;;;;-145.79;99.21;76167.16;5352567;27;20054;-75
2023/08/25 11:44:05;;;;;;;17.65;16.10;;;;;;;-145.79;99.94;76165.03;5351271;27;20120;-73
2023/08/25 11:46:37;;;;;;;17.45;15.95;;;;;;;-145.79;100.00;76165.03;5348167;27;20023;-70
2023/08/25 11:49:08;;;;;;;19.55;18.00;;;;;;;-145.79;100.00;76173.50;5350385;27;20023;-69
2023/08/25 11:51:40;;;;;;;19.27;17.65;;;;;;;-145.79;100.00;76177.75;5339421;27;20220;-66
2023/08/25 11:54:11;;;;;;;18.77;17.17;;;;;;;-145.79;100.00;76167.16;5346688;27;20045;-70
2023/08/25 11:56:51;;;;;;;21.75;19.73;;;;;;;-145.79;100.00;76165.03;5354752;27;20027;-71
2023/08/25 11:59:29;;;;;;;21.88;19.98;;;;;;;-145.79;100.00;76158.66;5354542;27;20478;-70
2023/08/25 12:02:01;;;;;;;22.30;20.15;;;;;;;-145.79;100.00;76165.03;5351586;27;20423;-70
2023/08/25 12:04:32;;;;;;;23.20;21.27;;;;;;;-145.79;100.00;76156.56;5339322;27;20080;-69
2023/08/25 12:07:04;;;;;;;25.02;22.88;;;;;;;-145.79;100.00;76165.03;5339328;27;20028;-71
2023/08/25 12:09:35;;;;;;;23.17;21.08;;;;;;;-145.79;100.00;76143.84;5339167;27;20803;-72
2023/08/25 12:12:07;;;;;;;25.35;23.00;;;;;;;-145.79;100.00;76139.59;5349501;27;20041;-72
2023/08/25 12:14:40;;;;;;;23.02;21.23;;;;;;;-145.79;100.00;76131.13;5334484;27;20019;-70
2023/08/25 12:17:24;;;;;;;20.73;18.98;;;;;;;-145.79;100.00;76135.38;5356990;27;20027;-69
2023/08/25 12:19:57;;;;;;;26.08;23.77;;;;;;;-145.79;100.00;76148.06;5350600;27;20026;-70
2023/08/25 12:22:28;;;;;;;27.70;25.23;;;;;;;-145.79;100.00;76148.06;5356567;27;20511;-69
2023/08/25 12:24:59;;;;;;;33.03;30.23;;;;;;;-145.79;100.00;76131.13;5358917;27;20042;-70
2023/08/25 12:27:30;;;;;;;21.75;20.02;;;;;;;-145.79;100.00;76118.41;5360597;27;20485;-69
2023/08/25 12:30:02;;;;;;;27.23;24.92;;;;;;;-145.79;100.00;76131.13;5356860;27;20023;-67
2023/08/25 12:32:33;;;;;;;27.02;24.80;;;;;;;-145.79;100.00;76143.84;5356464;27;20027;-66
2023/08/25 12:35:05;;;;;;;25.98;23.95;;;;;;;-145.79;100.00;76131.13;5359242;27;20106;-66
2023/08/25 12:37:36;;;;;;;25.30;23.13;;;;;;;-145.79;100.00;76129.00;5348811;27;20024;-64
2023/08/25 12:40:08;;;;;;;26.10;23.92;;;;;;;-145.79;100.00;76124.78;5356818;27;20031;-71
2023/08/25 12:42:39;;;;;;;28.30;25.92;;;;;;;-145.79;100.00;76122.66;5347466;27;20050;-70
2023/08/25 12:45:10;;;;;;;27.65;25.35;;;;;;;-145.79;100.00;76092.97;5357720;27;20029;-70
2023/08/25 12:47:42;;;;;;;22.70;20.88;;;;;;;-145.79;100.00;76073.91;5356079;27;20030;-70
2023/08/25 12:50:13;;;;;;;27.08;24.77;;;;;;;-145.79;100.00;76084.50;5352330;27;20099;-71
2023/08/25 12:52:44;;;;;;;22.27;20.38;;;;;;;-145.79;99.99;76056.97;5359708;27;20035;-70
2023/08/25 12:55:16;;;;;;;26.48;24.17;;;;;;;-145.79;100.00;76035.78;5358982;27;20094;-70
2023/08/25 12:57:52;;;;;;;24.63;22.65;;;;;;;-145.79;98.62;76031.53;5350477;27;20115;-71
2023/08/25 13:00:24;;;;;;;21.15;19.55;;;;;;;-145.79;97.35;75995.50;5357801;27;20410;-72
2023/08/25 13:02:55;;;;;;;23.92;21.90;;;;;;;-145.79;97.81;76004.00;5356562;27;20113;-72
2023/08/25 13:05:26;;;;;;;23.02;21.33;;;;;;;-145.79;97.00;76006.09;5356419;27;20027;-72
2023/08/25 13:07:58;;;;;;;22.15;20.48;;;;;;;-145.79;98.53;75995.50;5361135;27;20056;-72
2023/08/25 13:10:29;;;;;;;24.55;22.65;;;;;;;-145.79;98.91;75995.50;5354793;27;20091;-72
2023/08/25 13:13:01;;;;;;;25.92;23.60;;;;;;;-145.79;100.00;75999.75;5348764;27;20016;-73
2023/08/25 13:15:33;;;;;;;24.40;22.40;;;;;;;-145.79;99.39;75997.63;5343654;27;20104;-71
2023/08/25 13:18:04;;;;;;;22.98;21.02;;;;;;;-145.79;99.35;75999.75;5352240;27;20014;-73
2023/08/25 13:20:36;;;;;;;20.60;19.00;;;;;;;-145.79;97.41;75997.63;5359906;27;20035;-72
2023/08/25 13:23:07;;;;;;;21.90;20.30;;;;;;;-145.79;97.88;76010.34;5355533;27;20409;-72
2023/08/25 13:25:38;;;;;;;19.77;18.25;;;;;;;-145.79;97.41;76014.59;5354057;27;20068;-72
2023/08/25 13:28:10;;;;;;;18.40;16.98;;;;;;;-145.79;97.46;76016.69;5351611;27;20066;-73
2023/08/25 13:30:41;;;;;;;17.45;16.05;;;;;;;-145.79;97.14;76020.94;5355015;27;20031;-72
2023/08/25 13:33:12;;;;;;;19.77;18.17;;;;;;;-145.79;97.22;76016.69;5337662;27;20474;-72
2023/08/25 13:35:44;;;;;;;19.02;17.35;;;;;;;-145.79;97.78;76004.00;5339330;27;20030;-71
2023/08/25 13:38:15;;;;;;;18.65;17.15;;;;;;;-145.79;98.18;76001.88;5349431;27;20036;-72
2023/08/25 13:40:46;;;;;;;16.10;14.85;;;;;;;-145.79;96.65;75989.16;5346105;27;20037;-72
2023/08/25 13:43:17;;;;;;;19.23;17.50;;;;;;;-145.79;97.38;75987.03;5345156;27;20038;-70
2023/08/25 13:45:49;;;;;;;16.63;15.27;;;;;;;-145.79;95.78;75946.78;5345570;27;20431;-69
2023/08/25 13:48:21;;;;;;;18.17;16.77;;;;;;;-145.79;97.04;75961.63;5338390;27;20466;-70
2023/08/25 13:50:52;;;;;;;16.75;15.43;;;;;;;-145.79;95.15;75940.41;5343499;27;20046;-72
2023/08/25 13:53:24;;;;;;;17.23;15.73;;;;;;;-145.79;94.35;75938.31;5345402;27;20058;-71
2023/08/25 13:55:55;;;;;;;16.90;15.40;;;;;;;-145.79;93.18;75919.22;5339579;27;20103;-70
2023/08/25 13:58:26;;;;;;;22.23;20.33;;;;;;;-145.79;92.92;75908.63;5349170;27;20473;-72
2023/08/25 14:00:59;;;;;;;18.13;16.70;;;;;;;-145.79;92.24;75872.63;5346093;27;20031;-72
2023/08/25 14:03:32;;;;;;;19.60;17.90;;;;;;;-145.79;90.72;75859.91;5345335;27;20131;-71
2023/08/25 14:06:04;;;;;;;21.85;20.00;;;;;;;-145.79;90.96;75889.56;5336057;27;20057;-73
2023/08/25 14:08:36;;;;;;;33.92;30.90;;;;;;;-145.79;91.16;75889.56;5344789;27;20031;-71
2023/08/25 14:11:07;;;;;;;24.92;22.83;;;;;;;-145.79;89.70;75874.75;5341707;27;20019;-71
2023/08/25 14:13:39;;;;;;;23.77;21.75;;;;;;;-145.79;90.66;75902.28;5350472;27;20027;-69
2023/08/25 14:16:10;;;;;;;22.30;20.17;;;;;;;-145.79;90.33;75900.16;5340032;27;20045;-69
2023/08/25 14:18:41;;;;;;;21.88;19.98;;;;;;;-145.79;90.63;75902.28;5342731;27;20461;-72
2023/08/25 14:21:13;;;;;;;23.92;21.83;;;;;;;-145.79;91.55;75919.22;5349132;27;20098;-72
2023/08/25 14:23:44;;;;;;;21.08;19.00;;;;;;;-145.79;91.76;75917.13;5345939;27;20416;-74
2023/08/25 14:26:15;;;;;;;20.33;18.52;;;;;;;-145.79;91.34;75908.63;5346921;27;20601;-75
2023/08/25 14:28:46;;;;;;;23.08;20.98;;;;;;;-145.79;91.19;75923.47;5340268;27;20030;-73
2023/08/25 14:31:18;;;;;;;21.65;19.65;;;;;;;-145.79;92.07;75915.00;5352783;27;20037;-73
2023/08/25 14:33:50;;;;;;;25.75;23.27;;;;;;;-145.79;93.54;75929.81;5340934;27;20031;-73
2023/08/25 14:36:21;;;;;;;25.08;22.70;;;;;;;-145.79;93.79;75940.41;5340296;27;20080;-73
2023/08/25 14:38:52;;;;;;;24.17;21.90;;;;;;;-145.79;93.73;75936.19;5333039;27;20031;-74
2023/08/25 14:41:25;;;;;;;25.10;22.73;;;;;;;-145.79;94.55;75944.66;5352526;27;20422;-74
2023/08/25 14:43:57;;;;;;;24.02;21.67;;;;;;;-145.79;94.24;75934.06;5350504;27;20027;-73
2023/08/25 14:46:37;;;;;;;24.90;22.50;;;;;;;-145.79;94.30;75942.53;5355732;27;20030;-74
2023/08/25 14:49:09;;;;;;;24.63;22.33;;;;;;;-145.79;94.54;75944.66;5352067;27;20041;-75
2023/08/25 14:51:41;;;;;;;22.58;20.38;;;;;;;-145.79;93.26;75940.41;5357198;27;20030;-77
2023/08/25 14:54:12;;;;;;;26.48;23.75;;;;;;;-145.79;93.84;75938.31;5345579;27;20028;-77
2023/08/25 14:56:43;;;;;;;30.30;27.48;;;;;;;-145.79;92.49;75938.31;5343340;27;20015;-75
2023/08/25 14:59:15;;;;;;;27.95;25.35;;;;;;;-145.79;92.61;75938.31;5347919;27;20164;-74
2023/08/25 15:01:46;;;;;;;27.58;24.83;;;;;;;-145.79;91.57;75927.72;5357475;27;20112;-74
2023/08/25 15:04:19;;;;;;;23.77;21.58;;;;;;;-145.79;90.71;75923.47;5355431;27;20023;-74
2023/08/25 15:06:50;;;;;;;24.73;22.23;;;;;;;-145.79;89.98;75906.53;5353343;27;20101;-73
2023/08/25 15:09:21;;;;;;;24.80;22.50;;;;;;;-145.79;89.67;75910.75;5357175;27;20106;-72
2023/08/25 15:11:53;;;;;;;27.35;24.55;;;;;;;-145.79;89.75;75921.34;5347980;27;20033;-74
2023/08/25 15:14:24;;;;;;;28.77;26.05;;;;;;;-145.79;89.95;75934.06;5345931;27;20049;-74
2023/08/25 15:16:55;;;;;;;28.75;25.90;;;;;;;-145.79;91.19;75946.78;5353354;27;20367;-74
2023/08/25 15:19:26;;;;;;;27.92;25.20;;;;;;;-145.79;91.09;75944.66;5353074;27;20034;-75
2023/08/25 15:21:58;;;;;;;27.90;25.10;;;;;;;-145.79;90.50;75959.50;5351604;27;20066;-76
2023/08/25 15:24:29;;;;;;;27.40;24.80;;;;;;;-145.79;90.29;75965.84;5352794;27;20019;-75
2023/08/25 15:27:00;;;;;;;28.90;26.17;;;;;;;-145.79;91.04;75974.31;5350209;27;20023;-76
2023/08/25 15:29:33;;;;;;;28.02;25.25;;;;;;;-145.79;91.05;75965.84;5345594;27;20035;-76
2023/08/25 15:32:05;;;;;;;28.70;25.98;;;;;;;-145.79;91.47;75965.84;5355863;27;20037;-76
2023/08/25 15:34:36;;;;;;;29.17;26.20;;;;;;;-145.79;90.66;75967.97;5357788;27;20466;-75
2023/08/25 15:37:07;;;;;;;27.67;24.83;;;;;;;-145.79;91.18;75972.22;5344146;27;20478;-75
2023/08/25 15:39:39;;;;;;;26.17;23.58;;;;;;;-145.79;90.42;75982.81;5333843;27;20028;-76
2023/08/25 15:42:10;;;;;;;26.67;24.13;;;;;;;-145.79;90.43;75980.69;5342735;27;20493;-73
2023/08/25 15:44:42;;;;;;;23.70;21.40;;;;;;;-145.79;90.31;75972.22;5363199;27;20433;-73
2023/08/25 15:47:13;;;;;;;23.52;21.35;;;;;;;-145.79;89.35;75970.09;5345026;27;20023;-74
2023/08/25 15:49:44;;;;;;;22.27;20.15;;;;;;;-145.79;89.19;75974.31;5362426;27;20053;-76
2023/08/25 15:52:16;;;;;;;24.15;21.75;;;;;;;-145.79;88.92;75978.56;5359182;27;20024;-76
2023/08/25 15:54:47;;;;;;;22.67;20.63;;;;;;;-145.79;88.98;75987.03;5360983;27;20524;-75
2023/08/25 15:57:18;;;;;;;23.52;21.25;;;;;;;-145.79;89.34;75999.75;5359939;27;20023;-75
2023/08/25 15:59:50;;;;;;;21.48;19.38;;;;;;;-145.79;90.21;75987.03;5357555;27;20027;-75
2023/08/25 16:02:22;;;;;;;22.35;20.13;;;;;;;-145.79;90.82;75978.56;5358299;27;20065;-76
2023/08/25 16:04:53;;;;;;;25.10;22.63;;;;;;;-145.79;91.55;75991.28;5356028;27;20376;-73
2023/08/25 16:07:24;;;;;;;23.17;20.25;;;;;;;-145.79;91.94;75965.84;5360682;27;20534;-75
2023/08/25 16:09:55;;;;;;;25.10;22.58;;;;;;;-145.79;91.89;75982.81;5352831;27;20160;-74
2023/08/25 16:12:27;;;;;;;25.65;21.73;;;;;;;-145.79;91.26;75989.16;5343652;27;20041;-75
2023/08/25 16:14:58;;;;;;;23.77;21.27;;;;;;;-145.79;90.98;75984.91;5360652;27;20463;-74
2023/08/25 16:17:29;;;;;;;26.13;23.48;;;;;;;-145.79;91.63;75982.81;5358237;27;20082;-74
2023/08/25 16:20:01;;;;;;;25.00;22.40;;;;;;;-145.79;91.63;76004.00;5346195;27;20058;-74
2023/08/25 16:22:32;;;;;;;23.55;21.35;;;;;;;-145.79;91.79;75995.50;5345237;27;20082;-75
2023/08/25 16:25:05;;;;;;;26.35;23.65;;;;;;;-145.79;92.08;76001.88;5351645;27;20114;-75
2023/08/25 16:27:36;;;;;;;27.35;24.08;;;;;;;-145.79;92.34;76001.88;5362068;27;20053;-74
2023/08/25 16:30:09;;;;;;;27.90;23.23;;;;;;;-145.79;92.27;76006.09;5347017;27;20446;-75
2023/08/25 16:32:41;;;;;;;26.38;23.50;;;;;;;-145.79;92.07;76012.47;5345359;27;20029;-75
2023/08/25 16:35:12;;;;;;;27.40;24.80;;;;;;;-145.79;92.94;76012.47;5357378;27;20023;-75
2023/08/25 16:37:44;;;;;;;27.10;24.40;;;;;;;-145.79;92.79;76020.94;5358341;27;20537;-73
2023/08/25 16:40:15;;;;;;;24.55;22.27;;;;;;;-145.79;92.06;76008.22;5357749;27;20030;-76
2023/08/25 16:42:46;;;;;;;24.13;21.83;;;;;;;-145.79;92.29;76008.22;5357325;27;20058;-76
2023/08/25 16:45:18;;;;;;;21.88;19.65;;;;;;;-145.79;91.98;75974.31;5359649;27;20110;-77
2023/08/25 16:47:49;;;;;;;24.80;22.15;;;;;;;-145.79;91.33;75995.50;5361428;27;20079;-77
2023/08/25 16:50:21;;;;;;;22.48;20.23;;;;;;;-145.79;90.94;75995.50;5356953;27;20542;-75
2023/08/25 16:52:52;;;;;;;24.35;21.92;;;;;;;-145.79;89.98;76020.94;5357482;27;20125;-75
